createdAt,value
2018-07-11T00:01:02.313Z,18.94
2018-07-11T00:03:41.224Z,18.92
2018-07-11T00:06:09.762Z,18.87
2018-07-11T00:08:38.627Z,18.85
2018-07-11T00:11:07.247Z,18.84
2018-07-11T00:13:35.930Z,18.82
2018-07-11T00:16:04.607Z,18.82
2018-07-11T00:18:33.191Z,18.84
2018-07-11T00:21:02.090Z,18.87
2018-07-11T00:23:30.788Z,18.90
2018-07-11T00:25:59.443Z,18.97
2018-07-11T00:28:27.953Z,19.00
2018-07-11T00:30:56.706Z,19.04
2018-07-11T00:33:25.305Z,19.08
2018-07-11T00:35:53.835Z,19.13
2018-07-11T00:38:22.847Z,19.15
2018-07-11T00:40:52.119Z,19.18
2018-07-11T00:43:20.882Z,19.19
2018-07-11T00:45:49.766Z,19.20
2018-07-11T00:48:18.465Z,19.19
2018-07-11T00:50:47.382Z,19.19
2018-07-11T00:53:16.589Z,19.18
2018-07-11T00:55:46.055Z,19.17
2018-07-11T00:58:23.817Z,19.14
2018-07-11T01:01:03.666Z,19.11
2018-07-11T01:03:32.359Z,19.08
2018-07-11T01:06:01.048Z,19.01
2018-07-11T01:08:29.745Z,18.96
2018-07-11T01:11:01.766Z,18.90
2018-07-11T01:13:30.488Z,18.83
2018-07-11T01:15:59.253Z,18.73
2018-07-11T01:18:27.948Z,18.65
2018-07-11T01:20:56.665Z,18.56
2018-07-11T01:23:25.305Z,18.49
2018-07-11T01:25:53.977Z,18.42
2018-07-11T01:28:22.837Z,18.37
2018-07-11T01:30:51.590Z,18.35
2018-07-11T01:33:20.270Z,18.33
2018-07-11T01:35:49.109Z,18.30
2018-07-11T01:38:17.916Z,18.26
2018-07-11T01:40:46.886Z,18.22
2018-07-11T01:43:15.933Z,18.15
2018-07-11T01:45:44.636Z,18.18
2018-07-11T01:48:13.320Z,18.23
2018-07-11T01:50:42.036Z,18.23
2018-07-11T01:53:10.732Z,18.23
2018-07-11T01:55:39.400Z,18.22
2018-07-11T01:58:08.293Z,18.19
2018-07-11T02:00:37.037Z,18.17
2018-07-11T02:03:05.918Z,18.17
2018-07-11T02:05:34.689Z,18.18
2018-07-11T02:08:03.772Z,18.18
2018-07-11T02:10:32.556Z,18.18
2018-07-11T02:13:01.303Z,18.16
2018-07-11T02:15:30.234Z,18.15
2018-07-11T02:17:59.848Z,18.14
2018-07-11T02:20:28.671Z,18.13
2018-07-11T02:22:57.398Z,18.18
2018-07-11T02:25:26.063Z,18.24
2018-07-11T02:27:54.788Z,18.33
2018-07-11T02:30:23.568Z,18.42
2018-07-11T02:32:52.539Z,18.49
2018-07-11T02:35:21.220Z,18.54
2018-07-11T02:37:49.944Z,18.52
2018-07-11T02:40:18.588Z,18.53
2018-07-11T02:42:47.327Z,18.55
2018-07-11T02:45:16.069Z,18.60
2018-07-11T02:47:45.082Z,18.63
2018-07-11T02:50:14.478Z,18.60
2018-07-11T02:52:43.411Z,18.58
2018-07-11T02:55:12.191Z,18.57
2018-07-11T02:57:40.798Z,18.57
2018-07-11T03:00:09.706Z,18.62
2018-07-11T03:02:38.460Z,18.68
2018-07-11T03:05:07.274Z,18.74
2018-07-11T03:07:35.984Z,18.79
2018-07-11T03:10:04.732Z,18.76
2018-07-11T03:12:33.542Z,18.78
2018-07-11T03:15:02.326Z,18.80
2018-07-11T03:17:31.108Z,18.82
2018-07-11T03:19:59.896Z,18.85
2018-07-11T03:22:28.655Z,18.82
2018-07-11T03:24:57.245Z,18.80
2018-07-11T03:27:26.022Z,18.76
2018-07-11T03:29:54.664Z,18.74
2018-07-11T03:32:23.507Z,18.69
2018-07-11T03:34:52.122Z,18.70
2018-07-11T03:37:20.887Z,18.71
2018-07-11T03:39:49.960Z,18.73
2018-07-11T03:42:19.024Z,18.77
2018-07-11T03:44:48.005Z,18.80
2018-07-11T03:47:16.911Z,18.82
2018-07-11T03:49:45.561Z,18.85
2018-07-11T03:52:14.461Z,18.83
2018-07-11T03:54:43.199Z,18.81
2018-07-11T03:57:11.934Z,18.80
2018-07-11T03:59:40.752Z,18.77
2018-07-11T04:02:09.795Z,18.76
2018-07-11T04:04:38.641Z,18.73
2018-07-11T04:07:07.450Z,18.72
2018-07-11T04:09:36.175Z,18.74
2018-07-11T04:12:04.958Z,18.73
2018-07-11T04:14:34.713Z,18.72
2018-07-11T04:17:03.519Z,18.75
2018-07-11T04:19:32.724Z,18.80
2018-07-11T04:22:01.691Z,18.81
2018-07-11T04:24:30.577Z,18.76
2018-07-11T04:26:59.495Z,18.76
2018-07-11T04:29:28.318Z,18.73
2018-07-11T04:31:57.414Z,18.72
2018-07-11T04:34:26.196Z,18.76
2018-07-11T04:36:54.960Z,18.81
2018-07-11T04:39:23.782Z,18.86
2018-07-11T04:41:52.771Z,18.93
2018-07-11T04:44:21.625Z,18.97
2018-07-11T04:46:50.477Z,18.97
2018-07-11T04:49:19.356Z,18.99
2018-07-11T04:51:48.310Z,18.96
2018-07-11T04:54:17.244Z,18.99
2018-07-11T04:56:46.086Z,19.01
2018-07-11T04:59:15.073Z,18.98
2018-07-11T05:01:44.076Z,19.02
2018-07-11T05:04:12.932Z,19.09
2018-07-11T05:06:41.682Z,19.13
2018-07-11T05:09:10.546Z,19.19
2018-07-11T05:11:39.369Z,19.22
2018-07-11T05:14:08.329Z,19.28
2018-07-11T05:16:39.318Z,19.34
2018-07-11T05:19:08.348Z,19.44
2018-07-11T05:21:37.243Z,19.56
2018-07-11T05:24:06.619Z,19.70
2018-07-11T05:26:38.080Z,19.84
2018-07-11T05:29:10.921Z,19.95
2018-07-11T05:31:39.764Z,19.99
2018-07-11T05:34:09.898Z,20.07
2018-07-11T05:36:38.946Z,20.06
2018-07-11T05:39:07.993Z,20.14
2018-07-11T05:41:36.988Z,20.17
2018-07-11T05:44:05.774Z,20.29
2018-07-11T05:46:34.516Z,20.39
2018-07-11T05:49:03.372Z,20.53
2018-07-11T05:51:32.297Z,20.74
2018-07-11T05:54:02.577Z,20.95
2018-07-11T05:56:31.534Z,21.21
2018-07-11T05:59:00.385Z,21.55
2018-07-11T06:01:29.471Z,21.91
2018-07-11T06:03:58.227Z,22.31
2018-07-11T06:06:27.401Z,22.72
2018-07-11T06:08:56.206Z,23.11
2018-07-11T06:11:25.919Z,23.51
2018-07-11T06:13:55.046Z,23.80
2018-07-11T06:16:24.394Z,24.16
2018-07-11T06:18:53.345Z,24.53
2018-07-11T06:21:24.969Z,24.93
2018-07-11T06:23:53.988Z,25.32
2018-07-11T06:26:23.088Z,25.67
2018-07-11T06:28:53.180Z,26.01
2018-07-11T06:31:22.253Z,26.37
2018-07-11T06:33:51.085Z,26.73
2018-07-11T06:36:20.091Z,27.11
2018-07-11T06:38:48.960Z,27.48
2018-07-11T06:41:17.972Z,27.84
2018-07-11T06:43:47.182Z,28.17
2018-07-11T06:46:16.057Z,28.45
2018-07-11T06:48:45.012Z,28.68
2018-07-11T06:51:13.734Z,28.96
2018-07-11T06:53:42.510Z,29.26
2018-07-11T06:56:11.728Z,29.58
2018-07-11T06:58:40.503Z,29.81
2018-07-11T07:01:09.508Z,30.00
2018-07-11T07:03:38.338Z,30.06
2018-07-11T07:06:07.164Z,30.26
2018-07-11T07:08:36.142Z,30.47
2018-07-11T07:11:04.858Z,30.59
2018-07-11T07:13:33.469Z,30.61
2018-07-11T07:16:02.099Z,30.82
2018-07-11T07:18:30.996Z,31.02
2018-07-11T07:21:02.246Z,31.28
2018-07-11T07:23:31.044Z,31.42
2018-07-11T07:25:59.606Z,31.63
2018-07-11T07:28:28.359Z,31.83
2018-07-11T07:30:56.989Z,32.12
2018-07-11T07:33:25.597Z,32.43
2018-07-11T07:35:54.228Z,32.47
2018-07-11T07:38:22.833Z,32.54
2018-07-11T07:40:51.427Z,32.74
2018-07-11T07:43:20.073Z,33.00
2018-07-11T07:45:48.713Z,33.05
2018-07-11T07:48:17.271Z,33.27
2018-07-11T07:50:45.957Z,33.24
2018-07-11T07:53:14.608Z,33.29
2018-07-11T07:55:43.210Z,33.53
2018-07-11T07:58:11.824Z,33.75
2018-07-11T08:00:40.502Z,33.75
2018-07-11T08:03:09.151Z,33.85
2018-07-11T08:05:37.803Z,33.79
2018-07-11T08:08:06.510Z,33.34
2018-07-11T08:10:35.180Z,32.82
2018-07-11T08:13:04.016Z,32.86
2018-07-11T08:15:34.944Z,33.20
2018-07-11T08:18:05.769Z,33.47
2018-07-11T08:20:34.837Z,33.79
2018-07-11T08:23:16.471Z,33.78
2018-07-11T08:25:57.298Z,33.74
2018-07-11T08:29:34.848Z,33.91
2018-07-11T08:33:15.687Z,33.77
2018-07-11T08:35:55.319Z,34.27
2018-07-11T08:38:36.958Z,35.07
2018-07-11T08:42:19.758Z,35.45
2018-07-11T08:45:32.023Z,35.00
2018-07-11T08:50:16.675Z,34.47
2018-07-11T08:52:56.374Z,33.71
2018-07-11T08:55:40.677Z,33.27
2018-07-11T09:00:26.899Z,32.87
2018-07-11T09:03:23.999Z,32.33
2018-07-11T09:08:10.510Z,32.03
2018-07-11T09:10:50.133Z,31.66
2018-07-11T09:15:31.820Z,31.49
2018-07-11T09:18:42.072Z,31.80
2018-07-11T09:21:22.840Z,32.04
2018-07-11T09:24:03.977Z,32.42
2018-07-11T09:26:36.026Z,32.65
2018-07-11T09:29:04.769Z,32.68
2018-07-11T09:31:33.508Z,32.75
2018-07-11T09:34:02.091Z,32.86
2018-07-11T09:36:30.806Z,32.85
2018-07-11T09:38:59.487Z,32.82
2018-07-11T09:41:28.168Z,32.98
2018-07-11T09:43:57.101Z,33.11
2018-07-11T09:46:26.075Z,33.29
2018-07-11T09:48:54.834Z,33.54
2018-07-11T09:51:23.717Z,33.93
2018-07-11T09:53:52.753Z,34.01
2018-07-11T09:56:21.602Z,34.22
2018-07-11T09:58:50.461Z,34.92
2018-07-11T10:01:24.663Z,35.26
2018-07-11T10:03:53.787Z,35.77
2018-07-11T10:06:22.663Z,35.94
2018-07-11T10:08:51.535Z,36.28
2018-07-11T10:11:20.335Z,36.39
2018-07-11T10:13:49.312Z,36.27
2018-07-11T10:16:18.193Z,36.32
2018-07-11T10:18:52.775Z,36.44
2018-07-11T10:21:21.396Z,36.50
2018-07-11T10:23:50.129Z,36.85
2018-07-11T10:26:18.839Z,37.38
2018-07-11T10:28:47.609Z,37.91
2018-07-11T10:31:16.773Z,38.09
2018-07-11T10:33:45.552Z,38.00
2018-07-11T10:36:14.342Z,37.97
2018-07-11T10:38:43.095Z,37.84
2018-07-11T10:41:11.970Z,37.37
2018-07-11T10:43:40.788Z,36.77
2018-07-11T10:46:09.361Z,36.02
2018-07-11T10:48:38.233Z,35.37
2018-07-11T10:51:07.107Z,34.93
2018-07-11T10:53:36.404Z,34.64
2018-07-11T10:56:05.532Z,34.44
2018-07-11T10:58:35.830Z,34.31
2018-07-11T11:01:05.694Z,34.16
2018-07-11T11:03:35.654Z,34.03
2018-07-11T11:06:04.298Z,33.93
2018-07-11T11:08:33.071Z,33.88
2018-07-11T11:11:01.794Z,33.84
2018-07-11T11:13:30.553Z,33.83
2018-07-11T11:15:59.274Z,33.97
2018-07-11T11:18:27.956Z,34.21
2018-07-11T11:20:57.325Z,34.43
2018-07-11T11:23:26.956Z,34.43
2018-07-11T11:25:56.025Z,34.19
2018-07-11T11:28:24.941Z,33.84
2018-07-11T11:30:53.897Z,33.36
2018-07-11T11:33:23.200Z,33.02
2018-07-11T11:35:53.062Z,32.72
2018-07-11T11:38:22.225Z,32.54
2018-07-11T11:40:51.531Z,32.45
2018-07-11T11:43:20.092Z,32.36
2018-07-11T11:45:48.504Z,32.24
2018-07-11T11:48:17.213Z,32.13
2018-07-11T11:50:45.988Z,32.00
2018-07-11T11:53:14.705Z,31.85
2018-07-11T11:55:43.847Z,31.89
2018-07-11T11:58:12.419Z,32.03
2018-07-11T12:00:41.121Z,32.07
2018-07-11T12:03:09.875Z,31.85
2018-07-11T12:05:39.080Z,31.68
2018-07-11T12:08:07.992Z,31.49
2018-07-11T12:10:36.564Z,31.31
2018-07-11T12:13:05.097Z,31.13
2018-07-11T12:15:34.023Z,30.94
2018-07-11T12:18:02.709Z,30.75
2018-07-11T12:20:31.219Z,30.52
2018-07-11T12:22:59.898Z,30.31
2018-07-11T12:25:28.506Z,30.10
2018-07-11T12:27:57.173Z,29.86
2018-07-11T12:30:25.863Z,29.64
2018-07-11T12:32:54.584Z,29.40
2018-07-11T12:35:23.347Z,29.15
2018-07-11T12:37:52.072Z,28.93
2018-07-11T12:40:20.574Z,28.66
2018-07-11T12:42:49.164Z,28.42
2018-07-11T12:45:17.796Z,28.19
2018-07-11T12:47:51.653Z,28.03
2018-07-11T12:50:20.276Z,27.88
2018-07-11T12:52:49.141Z,27.77
2018-07-11T12:55:17.800Z,27.62
2018-07-11T12:57:46.507Z,27.53
2018-07-11T13:00:15.192Z,27.44
2018-07-11T13:02:43.845Z,27.40
2018-07-11T13:05:12.497Z,27.39
2018-07-11T13:07:41.231Z,27.33
2018-07-11T13:10:09.923Z,27.32
2018-07-11T13:12:38.653Z,27.33
2018-07-11T13:15:07.329Z,27.32
2018-07-11T13:17:35.910Z,27.33
2018-07-11T13:20:04.589Z,27.35
2018-07-11T13:22:33.173Z,27.40
2018-07-11T13:25:01.903Z,27.47
2018-07-11T13:27:30.468Z,27.54
2018-07-11T13:29:59.196Z,27.63
2018-07-11T13:32:27.874Z,27.67
2018-07-11T13:34:57.164Z,27.71
2018-07-11T13:37:25.873Z,27.79
2018-07-11T13:39:54.525Z,27.88
2018-07-11T13:42:23.115Z,27.92
2018-07-11T13:44:51.777Z,27.95
2018-07-11T13:47:25.457Z,27.95
2018-07-11T13:49:54.037Z,27.95
2018-07-11T13:52:22.710Z,27.93
2018-07-11T13:54:51.460Z,27.92
2018-07-11T13:57:21.687Z,27.95
2018-07-11T13:59:50.242Z,27.93
2018-07-11T14:02:18.895Z,27.92
2018-07-11T14:04:47.585Z,27.89
2018-07-11T14:07:16.161Z,27.82
2018-07-11T14:09:44.872Z,27.74
2018-07-11T14:12:13.487Z,27.61
2018-07-11T14:14:42.249Z,27.52
2018-07-11T14:17:11.502Z,27.45
2018-07-11T14:19:40.259Z,27.37
2018-07-11T14:22:08.996Z,27.31
2018-07-11T14:24:38.139Z,27.24
2018-07-11T14:27:06.939Z,27.10
2018-07-11T14:29:35.632Z,26.96
2018-07-11T14:32:04.310Z,26.82
2018-07-11T14:34:33.371Z,26.61
2018-07-11T14:37:02.767Z,26.43
2018-07-11T14:39:31.523Z,26.25
2018-07-11T14:42:00.204Z,26.08
2018-07-11T14:44:29.365Z,25.91
2018-07-11T14:46:58.062Z,25.78
2018-07-11T14:49:26.665Z,25.65
2018-07-11T14:51:55.537Z,25.54
2018-07-11T14:54:24.293Z,25.52
2018-07-11T14:56:53.077Z,25.51
2018-07-11T14:59:21.823Z,25.51
2018-07-11T15:01:51.226Z,25.55
2018-07-11T15:04:19.808Z,25.59
2018-07-11T15:06:48.976Z,25.61
2018-07-11T15:09:18.035Z,25.62
2018-07-11T15:11:46.353Z,25.69
2018-07-11T15:14:15.035Z,25.77
2018-07-11T15:16:43.761Z,25.85
2018-07-11T15:19:12.634Z,25.99
2018-07-11T15:21:41.403Z,26.13
2018-07-11T15:24:10.225Z,26.25
2018-07-11T15:26:39.389Z,26.37
2018-07-11T15:29:08.084Z,26.47
2018-07-11T15:31:37.100Z,26.58
2018-07-11T15:34:05.906Z,26.66
2018-07-11T15:36:34.697Z,26.68
2018-07-11T15:39:03.652Z,26.66
2018-07-11T15:41:32.354Z,26.62
2018-07-11T15:44:01.273Z,26.60
2018-07-11T15:46:30.524Z,26.56
2018-07-11T15:48:59.181Z,25.86
2018-07-11T15:51:27.943Z,26.50
2018-07-11T15:53:56.668Z,26.42
2018-07-11T15:56:25.859Z,26.34
2018-07-11T15:59:02.037Z,26.20
2018-07-11T16:01:32.020Z,26.02
2018-07-11T16:04:00.765Z,25.85
2018-07-11T16:06:29.511Z,25.73
2018-07-11T16:09:00.901Z,25.62
2018-07-11T16:11:29.948Z,25.49
2018-07-11T16:13:58.596Z,25.40
2018-07-11T16:16:27.219Z,25.28
2018-07-11T16:18:55.917Z,25.15
2018-07-11T16:21:24.793Z,25.07
2018-07-11T16:23:54.029Z,25.02
2018-07-11T16:26:23.207Z,24.99
2018-07-11T16:28:52.143Z,24.96
2018-07-11T16:31:20.885Z,24.89
2018-07-11T16:33:49.645Z,24.85
2018-07-11T16:36:18.366Z,24.82
2018-07-11T16:38:47.281Z,24.78
2018-07-11T16:41:16.303Z,24.74
2018-07-11T16:43:45.551Z,24.69
2018-07-11T16:46:14.251Z,24.63
2018-07-11T16:48:42.945Z,24.52
2018-07-11T16:51:11.718Z,24.43
2018-07-11T16:53:40.557Z,24.30
2018-07-11T16:56:09.436Z,24.20
2018-07-11T16:58:47.733Z,24.15
2018-07-11T17:01:16.499Z,24.11
2018-07-11T17:03:45.734Z,24.10
2018-07-11T17:06:15.201Z,24.11
2018-07-11T17:08:51.763Z,24.12
2018-07-11T17:11:24.149Z,24.16
2018-07-11T17:14:02.652Z,24.16
2018-07-11T17:16:50.543Z,24.17
2018-07-11T17:19:33.095Z,24.17
2018-07-11T17:22:05.981Z,24.16
2018-07-11T17:24:40.330Z,24.12
2018-07-11T17:27:09.249Z,24.10
2018-07-11T17:29:38.103Z,24.09
2018-07-11T17:32:09.042Z,24.08
2018-07-11T17:34:38.491Z,24.09
2018-07-11T17:37:08.654Z,24.09
2018-07-11T17:39:47.075Z,24.10
2018-07-11T17:42:17.996Z,24.14
2018-07-11T17:44:53.613Z,24.18
2018-07-11T17:47:24.398Z,24.22
2018-07-11T17:49:56.974Z,24.25
2018-07-11T17:52:27.073Z,24.29
2018-07-11T17:55:07.194Z,24.33
2018-07-11T17:57:45.649Z,24.35
2018-07-11T18:00:23.058Z,24.36
2018-07-11T18:03:00.160Z,24.36
2018-07-11T18:05:36.217Z,24.36
2018-07-11T18:08:09.055Z,24.35
2018-07-11T18:10:47.388Z,24.35
2018-07-11T18:13:23.003Z,24.34
2018-07-11T18:17:00.325Z,24.32
2018-07-11T18:21:43.051Z,24.28
2018-07-11T18:24:20.926Z,24.26
2018-07-11T18:27:02.209Z,24.25
2018-07-11T18:29:47.640Z,24.26
2018-07-11T18:32:26.980Z,24.24
2018-07-11T18:35:32.944Z,24.22
2018-07-11T18:38:09.347Z,24.20
2018-07-11T18:40:47.661Z,24.17
2018-07-11T18:45:26.863Z,24.17
2018-07-11T18:52:13.303Z,24.10
2018-07-11T18:57:07.305Z,23.98
2018-07-11T19:03:50.645Z,23.91
2018-07-11T19:06:25.651Z,23.88
2018-07-11T19:09:07.980Z,23.89
2018-07-11T19:11:50.424Z,23.89
2018-07-11T19:14:47.766Z,23.87
2018-07-11T19:19:32.918Z,23.87
2018-07-11T19:22:07.347Z,23.83
2018-07-11T19:26:45.643Z,23.82
2018-07-11T19:29:24.459Z,23.77
2018-07-11T19:34:07.165Z,23.75
2018-07-11T19:36:49.773Z,23.70
2018-07-11T19:39:27.666Z,23.68
2018-07-11T19:42:06.942Z,23.68
2018-07-11T19:44:47.743Z,23.64
2018-07-11T19:47:24.698Z,23.63
2018-07-11T19:50:00.046Z,23.63
2018-07-11T19:53:48.994Z,23.62
2018-07-11T19:56:29.639Z,23.58
2018-07-11T19:59:00.268Z,23.58
2018-07-11T20:01:30.086Z,23.57
2018-07-11T20:03:58.835Z,23.58
2018-07-11T20:06:27.528Z,23.58
2018-07-11T20:08:56.291Z,23.57
2018-07-11T20:11:24.992Z,23.57
2018-07-11T20:13:54.732Z,23.56
2018-07-11T20:16:24.090Z,23.53
2018-07-11T20:18:53.171Z,23.52
2018-07-11T20:21:22.400Z,23.51
2018-07-11T20:23:50.976Z,23.51
2018-07-11T20:26:20.428Z,23.52
2018-07-11T20:28:49.077Z,23.51
2018-07-11T20:31:17.793Z,23.51
2018-07-11T20:33:46.485Z,23.48
2018-07-11T20:36:15.131Z,23.42
2018-07-11T20:38:44.546Z,23.34
2018-07-11T20:41:13.268Z,23.26
2018-07-11T20:43:42.033Z,23.21
2018-07-11T20:46:10.957Z,23.13
2018-07-11T20:48:40.504Z,23.07
2018-07-11T20:51:09.154Z,23.01
2018-07-11T20:53:37.856Z,22.98
2018-07-11T20:56:06.616Z,22.96
2018-07-11T20:58:46.376Z,22.94
2018-07-11T21:01:25.990Z,22.92
2018-07-11T21:05:07.369Z,22.89
2018-07-11T21:07:53.604Z,22.87
2018-07-11T21:10:36.660Z,22.85
2018-07-11T21:15:28.302Z,22.86
2018-07-11T21:19:08.726Z,22.85
2018-07-11T21:21:38.465Z,22.84
2018-07-11T21:24:07.954Z,22.84
2018-07-11T21:26:37.078Z,22.87
2018-07-11T21:29:06.400Z,22.89
2018-07-11T21:31:35.133Z,22.91
2018-07-11T21:34:04.535Z,22.95
2018-07-11T21:36:33.237Z,22.97
2018-07-11T21:39:01.862Z,22.99
2018-07-11T21:47:10.431Z,22.93
2018-07-11T21:49:39.082Z,22.91
2018-07-11T21:52:07.741Z,22.88
2018-07-11T21:54:36.421Z,22.86
2018-07-11T21:57:05.096Z,22.85
2018-07-11T21:59:33.721Z,22.84
2018-07-11T22:02:02.269Z,22.85
2018-07-11T22:04:30.826Z,22.85
2018-07-11T22:06:59.351Z,22.87
2018-07-11T22:09:27.954Z,22.88
2018-07-11T22:11:56.513Z,22.89
2018-07-11T22:14:25.066Z,22.89
2018-07-11T22:16:53.677Z,22.92
2018-07-11T22:19:22.241Z,22.92
2018-07-11T22:21:49.567Z,22.93
2018-07-11T22:24:16.942Z,22.92
2018-07-11T22:26:44.332Z,22.94
2018-07-11T22:29:11.683Z,22.94
2018-07-11T22:31:39.025Z,22.95
2018-07-11T22:34:06.359Z,22.94
2018-07-11T22:36:33.729Z,22.95
2018-07-11T22:39:01.102Z,22.95
2018-07-11T22:41:28.406Z,22.96
2018-07-11T22:43:55.765Z,22.96
2018-07-11T22:46:23.157Z,22.96
2018-07-11T22:48:50.519Z,22.97
2018-07-11T22:51:17.866Z,22.95
2018-07-11T22:53:45.177Z,22.94
2018-07-11T22:56:12.529Z,22.91
2018-07-11T22:58:39.882Z,22.89
2018-07-11T23:01:07.239Z,22.89
2018-07-11T23:03:34.524Z,22.87
2018-07-11T23:06:01.846Z,22.84
2018-07-11T23:08:29.181Z,22.80
2018-07-11T23:10:56.593Z,22.75
2018-07-11T23:13:23.920Z,22.71
2018-07-11T23:15:51.299Z,22.66
2018-07-11T23:18:18.650Z,22.61
2018-07-11T23:20:46.033Z,22.59
2018-07-11T23:23:13.380Z,22.58
2018-07-11T23:25:40.728Z,22.59
2018-07-11T23:28:08.063Z,22.59
2018-07-11T23:30:35.432Z,22.57
2018-07-11T23:33:02.763Z,22.59
2018-07-11T23:35:30.229Z,22.58
2018-07-11T23:37:57.591Z,22.57
2018-07-11T23:40:24.925Z,22.58
2018-07-11T23:42:52.324Z,22.59
2018-07-11T23:45:19.694Z,22.57
2018-07-11T23:47:47.100Z,22.58
2018-07-11T23:50:14.477Z,22.58
2018-07-11T23:52:41.796Z,22.59
2018-07-11T23:55:09.177Z,22.61
2018-07-11T23:57:36.613Z,22.62
